Αρχική σελίδα
METAR-TAF:

METAR-TAF

Αεροδρόμια :

Cambridge Bay, Νούναβουτ, Καναδάς

γεωγραφικό πλάτος: 69-06N, γεωγραφικό μήκος: 105-07W, υψόμετρο: 23 μ

Παρών καιρός

Η αναφορά έγινε 25 λεπτά πριν, στις 10:00 UTC
Άνεμος 31 kt από BA
Θερμοκρασία -23°C
Υγρασία 70%
Πίεση 995 hPa
Ορατότητα: 0.2 χλμ
Διάσπαρτα νέφη σε ύψος 400 πόδια
Νεφοσκεπής σε ύψος 1100 πόδια
Ασθενές χιόνι, (δυνατή) , χιόνι

METAR: CYCB 131000Z 04031KT 1/8SM -SN +BLSN SCT004 OVC011 M23/M27 A2938 RMK BLSN1SF2SC5 SLP955

Χρόνος: 03:25 (10:25 UTC)

Πρόγνωση Καιρού

Η αναφορά έγινε 3 ώρες και 40 λεπτά πριν, στις 06:45 UTC
Η πρόγνωση ισχύει από τις 13 στις 07 UTC έως τις 13 στις 19 UTC
Άνεμος 27 kt από BA με ριπές μέχρι 37 kt
Ορατότητα: 0.4 χλμ
Νεφοσκεπής σε ύψος 800 πόδια
Ασθενές χιόνι, (δυνατή) , χιόνι

TAF: CYCB 130645Z 1307/1319 04027G37KT 1/4SM -SN +BLSN OVC008 RMK NXT FCST BY 131300Z

Μετεωρολογικές αναφορές και προγνώσεις για περισσότερα από 4000 αεροδρόμια (δελτία METAR και TAF).

Οι διαθέσιμοι σταθμοί απεικονίζονται στο χάρτη με κίτρινες και κόκκινες κουκκίδες.

Μετακινήστε το ποντίκι πάνω από τις κουκκίδες για να δείτε το όνομα του σταθμού.

Στη συνέχεια, κάντε κλικ για να δείτε τις μετεωρολογικές αναφορές και τις προγνώσεις καιρού.

Για να αλλάξετε το χάρτη: κάντε κλικ στα πράσινα κουμπιά με τον μαύρο σταυρό για να ζουμάρετε, στο πράσινο κουμπί με την παύλα για να αφαιρέσετε το ζουμ ή στα πράσινα βέλη για να αντιπαραβάλλετε χάρτες.


METAR-TAF: